sensor_id;sensor_type;location;lat;lon;timestamp;temperature;humidity
15967;DHT22;15175;48.154;11.534;2023-04-24T00:00:23;12.20;99.90
15967;DHT22;15175;48.154;11.534;2023-04-24T00:02:51;12.20;99.90
15967;DHT22;15175;48.154;11.534;2023-04-24T00:05:23;12.20;99.90
15967;DHT22;15175;48.154;11.534;2023-04-24T00:07:50;12.10;99.90
15967;DHT22;15175;48.154;11.534;2023-04-24T00:10:18;12.10;99.90
15967;DHT22;15175;48.154;11.534;2023-04-24T00:12:45;12.10;99.90
15967;DHT22;15175;48.154;11.534;2023-04-24T00:15:13;12.00;99.90
15967;DHT22;15175;48.154;11.534;2023-04-24T00:17:40;12.00;99.90
15967;DHT22;15175;48.154;11.534;2023-04-24T00:20:09;12.00;99.90
15967;DHT22;15175;48.154;11.534;2023-04-24T00:22:37;12.00;99.90
15967;DHT22;15175;48.154;11.534;2023-04-24T00:25:05;11.90;99.90
15967;DHT22;15175;48.154;11.534;2023-04-24T00:27:32;11.90;99.90
15967;DHT22;15175;48.154;11.534;2023-04-24T00:30:00;11.90;99.90
15967;DHT22;15175;48.154;11.534;2023-04-24T00:32:28;11.80;99.90
15967;DHT22;15175;48.154;11.534;2023-04-24T00:34:55;11.80;99.90
15967;DHT22;15175;48.154;11.534;2023-04-24T00:37:23;11.80;99.90
15967;DHT22;15175;48.154;11.534;2023-04-24T00:39:51;11.80;99.90
15967;DHT22;15175;48.154;11.534;2023-04-24T00:42:18;11.80;99.90
15967;DHT22;15175;48.154;11.534;2023-04-24T00:44:46;11.80;99.90
15967;DHT22;15175;48.154;11.534;2023-04-24T00:47:14;11.70;99.90
15967;DHT22;15175;48.154;11.534;2023-04-24T00:49:41;11.70;99.90
15967;DHT22;15175;48.154;11.534;2023-04-24T00:52:08;11.70;99.90
15967;DHT22;15175;48.154;11.534;2023-04-24T00:54:38;11.70;99.90
15967;DHT22;15175;48.154;11.534;2023-04-24T00:57:05;11.80;99.90
15967;DHT22;15175;48.154;11.534;2023-04-24T00:59:33;11.80;99.90
15967;DHT22;15175;48.154;11.534;2023-04-24T01:02:00;11.80;99.90
15967;DHT22;15175;48.154;11.534;2023-04-24T01:04:27;11.80;99.90
15967;DHT22;15175;48.154;11.534;2023-04-24T01:06:55;11.80;99.90
15967;DHT22;15175;48.154;11.534;2023-04-24T01:09:23;11.80;99.90
15967;DHT22;15175;48.154;11.534;2023-04-24T01:11:53;11.80;99.90
15967;DHT22;15175;48.154;11.534;2023-04-24T01:14:20;11.80;99.90
15967;DHT22;15175;48.154;11.534;2023-04-24T01:16:49;11.70;99.90
15967;DHT22;15175;48.154;11.534;2023-04-24T01:19:17;11.70;99.90
15967;DHT22;15175;48.154;11.534;2023-04-24T01:21:47;11.70;99.90
15967;DHT22;15175;48.154;11.534;2023-04-24T01:24:19;11.70;99.90
15967;DHT22;15175;48.154;11.534;2023-04-24T01:26:46;11.70;99.90
15967;DHT22;15175;48.154;11.534;2023-04-24T01:29:13;11.70;99.90
15967;DHT22;15175;48.154;11.534;2023-04-24T01:31:42;11.60;99.90
15967;DHT22;15175;48.154;11.534;2023-04-24T01:34:10;11.60;99.90
15967;DHT22;15175;48.154;11.534;2023-04-24T01:36:38;11.60;99.90
15967;DHT22;15175;48.154;11.534;2023-04-24T01:39:05;11.60;99.90
15967;DHT22;15175;48.154;11.534;2023-04-24T01:41:34;11.60;99.90
15967;DHT22;15175;48.154;11.534;2023-04-24T01:44:01;11.60;99.90
15967;DHT22;15175;48.154;11.534;2023-04-24T01:46:29;11.60;99.90
15967;DHT22;15175;48.154;11.534;2023-04-24T01:48:59;11.50;99.90
15967;DHT22;15175;48.154;11.534;2023-04-24T01:51:26;11.50;99.90
15967;DHT22;15175;48.154;11.534;2023-04-24T01:53:53;11.50;99.90
15967;DHT22;15175;48.154;11.534;2023-04-24T01:56:22;11.50;99.90
15967;DHT22;15175;48.154;11.534;2023-04-24T01:58:52;11.50;99.90
15967;DHT22;15175;48.154;11.534;2023-04-24T02:01:21;11.50;99.90
15967;DHT22;15175;48.154;11.534;2023-04-24T02:03:48;11.50;99.90
15967;DHT22;15175;48.154;11.534;2023-04-24T02:06:15;11.50;99.90
15967;DHT22;15175;48.154;11.534;2023-04-24T02:08:42;11.50;99.90
15967;DHT22;15175;48.154;11.534;2023-04-24T02:11:09;11.40;99.90
15967;DHT22;15175;48.154;11.534;2023-04-24T02:13:37;11.40;99.90
15967;DHT22;15175;48.154;11.534;2023-04-24T02:16:05;11.50;99.90
15967;DHT22;15175;48.154;11.534;2023-04-24T02:18:32;11.50;99.90
15967;DHT22;15175;48.154;11.534;2023-04-24T02:20:59;11.50;99.90
15967;DHT22;15175;48.154;11.534;2023-04-24T02:23:26;11.50;99.90
15967;DHT22;15175;48.154;11.534;2023-04-24T02:25:53;11.50;99.90
15967;DHT22;15175;48.154;11.534;2023-04-24T02:28:21;11.50;99.90
15967;DHT22;15175;48.154;11.534;2023-04-24T02:30:50;11.50;99.90
15967;DHT22;15175;48.154;11.534;2023-04-24T02:33:22;11.40;99.90
15967;DHT22;15175;48.154;11.534;2023-04-24T02:35:49;11.40;99.90
15967;DHT22;15175;48.154;11.534;2023-04-24T02:38:16;11.40;99.90
15967;DHT22;15175;48.154;11.534;2023-04-24T02:40:43;11.40;99.90
15967;DHT22;15175;48.154;11.534;2023-04-24T02:43:10;11.40;99.90
15967;DHT22;15175;48.154;11.534;2023-04-24T02:45:37;11.40;99.90
15967;DHT22;15175;48.154;11.534;2023-04-24T02:48:04;11.40;99.90
15967;DHT22;15175;48.154;11.534;2023-04-24T02:50:33;11.40;99.90
15967;DHT22;15175;48.154;11.534;2023-04-24T02:53:00;11.40;99.90
15967;DHT22;15175;48.154;11.534;2023-04-24T02:55:27;11.40;99.90
15967;DHT22;15175;48.154;11.534;2023-04-24T02:57:54;11.30;99.90
15967;DHT22;15175;48.154;11.534;2023-04-24T03:00:22;11.30;99.90
15967;DHT22;15175;48.154;11.534;2023-04-24T03:02:49;11.30;99.90
15967;DHT22;15175;48.154;11.534;2023-04-24T03:05:16;11.30;99.90
15967;DHT22;15175;48.154;11.534;2023-04-24T03:07:45;11.30;99.90
15967;DHT22;15175;48.154;11.534;2023-04-24T03:10:12;11.30;99.90
15967;DHT22;15175;48.154;11.534;2023-04-24T03:12:39;11.30;99.90
15967;DHT22;15175;48.154;11.534;2023-04-24T03:15:08;11.40;99.90
15967;DHT22;15175;48.154;11.534;2023-04-24T03:17:36;11.30;99.90
15967;DHT22;15175;48.154;11.534;2023-04-24T03:20:04;11.30;99.90
15967;DHT22;15175;48.154;11.534;2023-04-24T03:22:33;11.30;99.90
15967;DHT22;15175;48.154;11.534;2023-04-24T03:25:04;11.30;99.90
15967;DHT22;15175;48.154;11.534;2023-04-24T03:27:31;11.30;99.90
15967;DHT22;15175;48.154;11.534;2023-04-24T03:30:01;11.20;99.90
15967;DHT22;15175;48.154;11.534;2023-04-24T03:32:40;11.20;99.90
15967;DHT22;15175;48.154;11.534;2023-04-24T03:35:11;11.20;99.90
15967;DHT22;15175;48.154;11.534;2023-04-24T03:37:38;11.20;99.90
15967;DHT22;15175;48.154;11.534;2023-04-24T03:40:27;11.10;99.90
15967;DHT22;15175;48.154;11.534;2023-04-24T03:42:57;11.10;99.90
15967;DHT22;15175;48.154;11.534;2023-04-24T03:45:24;11.10;99.90
15967;DHT22;15175;48.154;11.534;2023-04-24T03:47:52;11.10;99.90
15967;DHT22;15175;48.154;11.534;2023-04-24T03:50:19;11.00;99.90
15967;DHT22;15175;48.154;11.534;2023-04-24T03:52:46;11.00;99.90
15967;DHT22;15175;48.154;11.534;2023-04-24T03:55:28;11.00;99.90
15967;DHT22;15175;48.154;11.534;2023-04-24T03:57:56;11.10;99.90
15967;DHT22;15175;48.154;11.534;2023-04-24T04:00:23;11.10;99.90
15967;DHT22;15175;48.154;11.534;2023-04-24T04:03:11;11.10;99.90
15967;DHT22;15175;48.154;11.534;2023-04-24T04:05:39;11.00;99.90
15967;DHT22;15175;48.154;11.534;2023-04-24T04:08:07;11.00;99.90
15967;DHT22;15175;48.154;11.534;2023-04-24T04:10:35;11.00;99.90
15967;DHT22;15175;48.154;11.534;2023-04-24T04:13:04;10.90;99.90
15967;DHT22;15175;48.154;11.534;2023-04-24T04:15:32;10.90;99.90
15967;DHT22;15175;48.154;11.534;2023-04-24T04:18:00;10.90;99.90
15967;DHT22;15175;48.154;11.534;2023-04-24T04:20:27;10.90;99.90
15967;DHT22;15175;48.154;11.534;2023-04-24T04:22:54;10.90;99.90
15967;DHT22;15175;48.154;11.534;2023-04-24T04:25:34;10.80;99.90
15967;DHT22;15175;48.154;11.534;2023-04-24T04:28:02;10.80;99.90
15967;DHT22;15175;48.154;11.534;2023-04-24T04:30:29;10.80;99.90
15967;DHT22;15175;48.154;11.534;2023-04-24T04:33:02;10.70;99.90
15967;DHT22;15175;48.154;11.534;2023-04-24T04:35:30;10.70;99.90
15967;DHT22;15175;48.154;11.534;2023-04-24T04:37:58;10.70;99.90
15967;DHT22;15175;48.154;11.534;2023-04-24T04:40:42;10.70;99.90
15967;DHT22;15175;48.154;11.534;2023-04-24T04:43:11;10.70;99.90
15967;DHT22;15175;48.154;11.534;2023-04-24T04:45:44;10.70;99.90
15967;DHT22;15175;48.154;11.534;2023-04-24T04:48:33;10.70;99.90
15967;DHT22;15175;48.154;11.534;2023-04-24T04:51:04;10.70;99.90
15967;DHT22;15175;48.154;11.534;2023-04-24T04:53:32;10.70;99.90
15967;DHT22;15175;48.154;11.534;2023-04-24T04:56:00;10.70;99.90
15967;DHT22;15175;48.154;11.534;2023-04-24T04:58:36;10.60;99.90
15967;DHT22;15175;48.154;11.534;2023-04-24T05:01:05;10.70;99.90
15967;DHT22;15175;48.154;11.534;2023-04-24T05:03:39;10.80;99.90
15967;DHT22;15175;48.154;11.534;2023-04-24T05:06:09;10.80;99.90
15967;DHT22;15175;48.154;11.534;2023-04-24T05:08:39;10.80;99.90
15967;DHT22;15175;48.154;11.534;2023-04-24T05:11:11;10.80;99.90
15967;DHT22;15175;48.154;11.534;2023-04-24T05:13:39;10.80;99.90
15967;DHT22;15175;48.154;11.534;2023-04-24T05:16:12;10.80;99.90
15967;DHT22;15175;48.154;11.534;2023-04-24T05:18:39;10.90;99.90
15967;DHT22;15175;48.154;11.534;2023-04-24T05:21:09;10.90;99.90
15967;DHT22;15175;48.154;11.534;2023-04-24T05:23:38;10.90;99.90
15967;DHT22;15175;48.154;11.534;2023-04-24T05:26:06;10.90;99.90
15967;DHT22;15175;48.154;11.534;2023-04-24T05:28:34;10.90;99.90
15967;DHT22;15175;48.154;11.534;2023-04-24T05:31:07;10.90;99.90
15967;DHT22;15175;48.154;11.534;2023-04-24T05:33:35;10.90;99.90
15967;DHT22;15175;48.154;11.534;2023-04-24T05:36:02;10.90;99.90
15967;DHT22;15175;48.154;11.534;2023-04-24T05:38:31;10.90;99.90
15967;DHT22;15175;48.154;11.534;2023-04-24T05:40:59;10.90;99.90
15967;DHT22;15175;48.154;11.534;2023-04-24T05:43:27;10.90;99.90
15967;DHT22;15175;48.154;11.534;2023-04-24T05:45:55;10.90;99.90
15967;DHT22;15175;48.154;11.534;2023-04-24T05:48:23;11.00;99.90
15967;DHT22;15175;48.154;11.534;2023-04-24T05:50:50;11.00;99.90
15967;DHT22;15175;48.154;11.534;2023-04-24T05:53:18;11.00;99.90
15967;DHT22;15175;48.154;11.534;2023-04-24T05:55:45;11.00;99.90
15967;DHT22;15175;48.154;11.534;2023-04-24T05:58:12;11.00;99.90
15967;DHT22;15175;48.154;11.534;2023-04-24T06:00:40;11.00;99.90
15967;DHT22;15175;48.154;11.534;2023-04-24T06:03:11;11.00;99.90
15967;DHT22;15175;48.154;11.534;2023-04-24T06:05:38;11.10;99.90
15967;DHT22;15175;48.154;11.534;2023-04-24T06:08:06;11.10;99.90
15967;DHT22;15175;48.154;11.534;2023-04-24T06:10:37;11.10;99.90
15967;DHT22;15175;48.154;11.534;2023-04-24T06:13:07;11.10;99.90
15967;DHT22;15175;48.154;11.534;2023-04-24T06:15:37;11.20;99.90
15967;DHT22;15175;48.154;11.534;2023-04-24T06:18:07;11.20;99.90
15967;DHT22;15175;48.154;11.534;2023-04-24T06:20:37;11.30;99.90
15967;DHT22;15175;48.154;11.534;2023-04-24T06:23:05;11.30;99.90
15967;DHT22;15175;48.154;11.534;2023-04-24T06:25:33;11.30;99.90
15967;DHT22;15175;48.154;11.534;2023-04-24T06:28:00;11.30;99.90
15967;DHT22;15175;48.154;11.534;2023-04-24T06:30:29;11.30;99.90
15967;DHT22;15175;48.154;11.534;2023-04-24T06:32:57;11.30;99.90
15967;DHT22;15175;48.154;11.534;2023-04-24T06:35:24;11.30;99.90
15967;DHT22;15175;48.154;11.534;2023-04-24T06:37:53;11.30;99.90
15967;DHT22;15175;48.154;11.534;2023-04-24T06:40:21;11.30;99.90
15967;DHT22;15175;48.154;11.534;2023-04-24T06:42:49;11.40;99.90
15967;DHT22;15175;48.154;11.534;2023-04-24T06:45:16;11.40;99.90
15967;DHT22;15175;48.154;11.534;2023-04-24T06:47:43;11.40;99.90
15967;DHT22;15175;48.154;11.534;2023-04-24T06:50:10;11.40;99.90
15967;DHT22;15175;48.154;11.534;2023-04-24T06:52:38;11.40;99.90
15967;DHT22;15175;48.154;11.534;2023-04-24T06:55:08;11.50;99.90
15967;DHT22;15175;48.154;11.534;2023-04-24T06:57:35;11.50;99.90
15967;DHT22;15175;48.154;11.534;2023-04-24T07:00:03;11.60;99.90
15967;DHT22;15175;48.154;11.534;2023-04-24T07:02:32;11.60;99.90
15967;DHT22;15175;48.154;11.534;2023-04-24T07:04:59;11.60;99.90
15967;DHT22;15175;48.154;11.534;2023-04-24T07:07:27;11.70;99.90
15967;DHT22;15175;48.154;11.534;2023-04-24T07:09:54;11.80;99.90
15967;DHT22;15175;48.154;11.534;2023-04-24T07:12:23;11.90;99.90
15967;DHT22;15175;48.154;11.534;2023-04-24T07:14:50;11.90;99.90
15967;DHT22;15175;48.154;11.534;2023-04-24T07:17:18;12.00;99.90
15967;DHT22;15175;48.154;11.534;2023-04-24T07:19:45;12.10;99.90
15967;DHT22;15175;48.154;11.534;2023-04-24T07:22:12;12.10;99.90
15967;DHT22;15175;48.154;11.534;2023-04-24T07:24:42;12.10;99.90
15967;DHT22;15175;48.154;11.534;2023-04-24T07:27:10;12.10;99.90
15967;DHT22;15175;48.154;11.534;2023-04-24T07:29:38;12.00;99.90
15967;DHT22;15175;48.154;11.534;2023-04-24T07:32:05;11.90;99.90
15967;DHT22;15175;48.154;11.534;2023-04-24T07:34:33;11.90;99.90
15967;DHT22;15175;48.154;11.534;2023-04-24T07:37:00;12.00;99.90
15967;DHT22;15175;48.154;11.534;2023-04-24T07:39:28;12.00;99.90
15967;DHT22;15175;48.154;11.534;2023-04-24T07:41:56;12.00;99.90
15967;DHT22;15175;48.154;11.534;2023-04-24T07:44:24;12.10;99.90
15967;DHT22;15175;48.154;11.534;2023-04-24T07:46:52;12.10;99.90
15967;DHT22;15175;48.154;11.534;2023-04-24T07:49:20;12.00;99.90
15967;DHT22;15175;48.154;11.534;2023-04-24T07:51:47;12.00;99.90
15967;DHT22;15175;48.154;11.534;2023-04-24T07:56:43;12.00;99.90
15967;DHT22;15175;48.154;11.534;2023-04-24T07:59:11;12.00;99.90
15967;DHT22;15175;48.154;11.534;2023-04-24T08:01:38;12.00;99.90
15967;DHT22;15175;48.154;11.534;2023-04-24T08:04:07;12.00;99.90
15967;DHT22;15175;48.154;11.534;2023-04-24T08:06:34;12.10;99.90
15967;DHT22;15175;48.154;11.534;2023-04-24T08:09:01;12.20;99.90
15967;DHT22;15175;48.154;11.534;2023-04-24T08:11:29;12.20;99.90
15967;DHT22;15175;48.154;11.534;2023-04-24T08:13:57;12.30;99.90
15967;DHT22;15175;48.154;11.534;2023-04-24T08:16:24;12.30;99.90
15967;DHT22;15175;48.154;11.534;2023-04-24T08:18:52;12.30;99.90
15967;DHT22;15175;48.154;11.534;2023-04-24T08:21:21;12.20;99.90
15967;DHT22;15175;48.154;11.534;2023-04-24T08:23:49;12.30;99.90
15967;DHT22;15175;48.154;11.534;2023-04-24T08:26:16;12.20;99.90
15967;DHT22;15175;48.154;11.534;2023-04-24T08:28:44;12.20;99.90
15967;DHT22;15175;48.154;11.534;2023-04-24T08:31:11;12.20;99.90
15967;DHT22;15175;48.154;11.534;2023-04-24T08:33:38;12.20;99.90
15967;DHT22;15175;48.154;11.534;2023-04-24T08:36:07;12.20;99.90
15967;DHT22;15175;48.154;11.534;2023-04-24T08:38:35;12.20;99.90
15967;DHT22;15175;48.154;11.534;2023-04-24T08:41:03;12.00;99.90
15967;DHT22;15175;48.154;11.534;2023-04-24T08:43:33;12.00;99.90
15967;DHT22;15175;48.154;11.534;2023-04-24T08:46:03;11.80;99.90
15967;DHT22;15175;48.154;11.534;2023-04-24T08:48:31;11.80;99.90
15967;DHT22;15175;48.154;11.534;2023-04-24T08:50:58;11.80;99.90
15967;DHT22;15175;48.154;11.534;2023-04-24T08:53:27;11.80;99.90
15967;DHT22;15175;48.154;11.534;2023-04-24T08:55:56;11.80;99.90
15967;DHT22;15175;48.154;11.534;2023-04-24T08:58:25;11.70;99.90
15967;DHT22;15175;48.154;11.534;2023-04-24T09:00:54;11.70;99.90
15967;DHT22;15175;48.154;11.534;2023-04-24T09:03:22;11.70;99.90
15967;DHT22;15175;48.154;11.534;2023-04-24T09:05:50;11.60;99.90
15967;DHT22;15175;48.154;11.534;2023-04-24T09:08:18;11.50;99.90
15967;DHT22;15175;48.154;11.534;2023-04-24T09:10:46;11.60;99.90
15967;DHT22;15175;48.154;11.534;2023-04-24T09:13:14;11.40;99.90
15967;DHT22;15175;48.154;11.534;2023-04-24T09:15:42;11.40;99.90
15967;DHT22;15175;48.154;11.534;2023-04-24T09:18:09;11.40;99.90
15967;DHT22;15175;48.154;11.534;2023-04-24T09:20:57;11.50;99.90
15967;DHT22;15175;48.154;11.534;2023-04-24T09:23:27;11.50;99.90
15967;DHT22;15175;48.154;11.534;2023-04-24T09:25:55;11.50;99.90
15967;DHT22;15175;48.154;11.534;2023-04-24T09:28:29;11.60;99.90
15967;DHT22;15175;48.154;11.534;2023-04-24T09:31:04;11.50;99.90
15967;DHT22;15175;48.154;11.534;2023-04-24T09:33:31;11.60;99.90
15967;DHT22;15175;48.154;11.534;2023-04-24T09:35:58;11.70;99.90
15967;DHT22;15175;48.154;11.534;2023-04-24T09:38:33;11.70;99.90
15967;DHT22;15175;48.154;11.534;2023-04-24T09:41:02;11.70;99.90
15967;DHT22;15175;48.154;11.534;2023-04-24T09:43:31;11.70;99.90
15967;DHT22;15175;48.154;11.534;2023-04-24T09:46:00;11.70;99.90
15967;DHT22;15175;48.154;11.534;2023-04-24T09:48:31;11.80;99.90
15967;DHT22;15175;48.154;11.534;2023-04-24T09:50:59;11.80;99.90
15967;DHT22;15175;48.154;11.534;2023-04-24T09:53:28;11.90;99.90
15967;DHT22;15175;48.154;11.534;2023-04-24T09:55:55;12.00;99.90
15967;DHT22;15175;48.154;11.534;2023-04-24T09:58:25;12.10;99.90
15967;DHT22;15175;48.154;11.534;2023-04-24T10:00:56;12.10;99.90
15967;DHT22;15175;48.154;11.534;2023-04-24T10:03:24;12.20;99.90
15967;DHT22;15175;48.154;11.534;2023-04-24T10:05:53;12.30;99.90
15967;DHT22;15175;48.154;11.534;2023-04-24T10:08:21;12.40;99.90
15967;DHT22;15175;48.154;11.534;2023-04-24T10:10:48;12.50;99.90
15967;DHT22;15175;48.154;11.534;2023-04-24T10:13:15;12.60;99.90
15967;DHT22;15175;48.154;11.534;2023-04-24T10:15:43;12.70;99.90
15967;DHT22;15175;48.154;11.534;2023-04-24T10:18:11;12.80;99.90
15967;DHT22;15175;48.154;11.534;2023-04-24T10:20:40;12.80;99.90
15967;DHT22;15175;48.154;11.534;2023-04-24T10:23:07;12.80;99.90
15967;DHT22;15175;48.154;11.534;2023-04-24T10:25:35;12.90;99.90
15967;DHT22;15175;48.154;11.534;2023-04-24T10:28:03;12.90;99.90
15967;DHT22;15175;48.154;11.534;2023-04-24T10:30:32;12.80;99.90
15967;DHT22;15175;48.154;11.534;2023-04-24T10:33:02;12.80;99.90
15967;DHT22;15175;48.154;11.534;2023-04-24T10:35:33;12.90;99.90
15967;DHT22;15175;48.154;11.534;2023-04-24T10:38:03;13.00;99.90
15967;DHT22;15175;48.154;11.534;2023-04-24T10:40:33;13.10;99.90
15967;DHT22;15175;48.154;11.534;2023-04-24T10:43:03;13.10;99.90
15967;DHT22;15175;48.154;11.534;2023-04-24T10:45:33;13.10;99.90
15967;DHT22;15175;48.154;11.534;2023-04-24T10:48:03;13.00;99.90
15967;DHT22;15175;48.154;11.534;2023-04-24T10:50:47;13.10;99.90
15967;DHT22;15175;48.154;11.534;2023-04-24T10:53:17;13.00;99.90
15967;DHT22;15175;48.154;11.534;2023-04-24T10:55:46;12.80;99.90
15967;DHT22;15175;48.154;11.534;2023-04-24T10:58:14;12.60;99.90
15967;DHT22;15175;48.154;11.534;2023-04-24T11:00:42;12.40;99.90
15967;DHT22;15175;48.154;11.534;2023-04-24T11:03:25;12.30;99.90
15967;DHT22;15175;48.154;11.534;2023-04-24T11:05:57;12.10;99.90
15967;DHT22;15175;48.154;11.534;2023-04-24T11:08:30;12.00;99.90
15967;DHT22;15175;48.154;11.534;2023-04-24T11:11:03;12.00;99.90
15967;DHT22;15175;48.154;11.534;2023-04-24T11:14:02;12.00;99.90
15967;DHT22;15175;48.154;11.534;2023-04-24T11:16:33;12.00;99.90
15967;DHT22;15175;48.154;11.534;2023-04-24T11:19:03;12.10;99.90
15967;DHT22;15175;48.154;11.534;2023-04-24T11:21:55;12.20;99.90
15967;DHT22;15175;48.154;11.534;2023-04-24T11:24:32;12.50;99.90
15967;DHT22;15175;48.154;11.534;2023-04-24T11:27:07;12.70;99.90
15967;DHT22;15175;48.154;11.534;2023-04-24T11:29:44;13.00;99.90
15967;DHT22;15175;48.154;11.534;2023-04-24T11:32:16;13.20;99.90
15967;DHT22;15175;48.154;11.534;2023-04-24T11:34:46;13.40;99.90
15967;DHT22;15175;48.154;11.534;2023-04-24T11:37:16;13.40;99.90
15967;DHT22;15175;48.154;11.534;2023-04-24T11:39:43;13.40;99.90
15967;DHT22;15175;48.154;11.534;2023-04-24T11:42:10;13.50;99.90
15967;DHT22;15175;48.154;11.534;2023-04-24T11:44:38;13.50;99.90
15967;DHT22;15175;48.154;11.534;2023-04-24T11:47:05;13.60;99.90
15967;DHT22;15175;48.154;11.534;2023-04-24T11:49:33;13.80;99.90
15967;DHT22;15175;48.154;11.534;2023-04-24T11:52:00;14.00;99.90
15967;DHT22;15175;48.154;11.534;2023-04-24T11:54:29;14.20;99.90
15967;DHT22;15175;48.154;11.534;2023-04-24T11:56:57;14.30;99.90
15967;DHT22;15175;48.154;11.534;2023-04-24T11:59:24;14.30;99.90
15967;DHT22;15175;48.154;11.534;2023-04-24T12:01:51;14.40;99.90
15967;DHT22;15175;48.154;11.534;2023-04-24T12:04:18;14.40;99.90
15967;DHT22;15175;48.154;11.534;2023-04-24T12:07:01;14.40;99.90
15967;DHT22;15175;48.154;11.534;2023-04-24T12:09:40;14.30;99.90
15967;DHT22;15175;48.154;11.534;2023-04-24T12:12:08;14.30;99.90
15967;DHT22;15175;48.154;11.534;2023-04-24T12:14:42;14.30;99.90
15967;DHT22;15175;48.154;11.534;2023-04-24T12:17:10;14.20;99.90
15967;DHT22;15175;48.154;11.534;2023-04-24T12:19:37;14.20;99.90
15967;DHT22;15175;48.154;11.534;2023-04-24T12:22:05;14.20;99.90
15967;DHT22;15175;48.154;11.534;2023-04-24T12:24:34;14.20;99.90
15967;DHT22;15175;48.154;11.534;2023-04-24T12:27:01;14.20;99.90
15967;DHT22;15175;48.154;11.534;2023-04-24T12:29:28;14.10;99.90
15967;DHT22;15175;48.154;11.534;2023-04-24T12:31:55;14.20;99.90
15967;DHT22;15175;48.154;11.534;2023-04-24T12:34:24;14.20;99.90
15967;DHT22;15175;48.154;11.534;2023-04-24T12:36:52;14.30;99.90
15967;DHT22;15175;48.154;11.534;2023-04-24T12:39:19;14.40;99.90
15967;DHT22;15175;48.154;11.534;2023-04-24T12:41:54;14.60;99.90
15967;DHT22;15175;48.154;11.534;2023-04-24T12:44:32;14.70;99.90
15967;DHT22;15175;48.154;11.534;2023-04-24T12:47:00;14.80;99.90
15967;DHT22;15175;48.154;11.534;2023-04-24T12:49:28;15.00;99.90
15967;DHT22;15175;48.154;11.534;2023-04-24T12:51:56;15.00;99.90
15967;DHT22;15175;48.154;11.534;2023-04-24T12:54:23;15.00;99.90
15967;DHT22;15175;48.154;11.534;2023-04-24T12:56:51;15.00;99.90
15967;DHT22;15175;48.154;11.534;2023-04-24T12:59:18;15.10;99.90
15967;DHT22;15175;48.154;11.534;2023-04-24T13:01:45;15.10;99.90
15967;DHT22;15175;48.154;11.534;2023-04-24T13:04:12;15.00;99.90
15967;DHT22;15175;48.154;11.534;2023-04-24T13:06:40;15.00;99.90
15967;DHT22;15175;48.154;11.534;2023-04-24T13:09:07;15.00;99.90
15967;DHT22;15175;48.154;11.534;2023-04-24T13:11:34;15.00;99.90
15967;DHT22;15175;48.154;11.534;2023-04-24T13:14:03;15.00;99.90
15967;DHT22;15175;48.154;11.534;2023-04-24T13:16:30;14.90;99.90
15967;DHT22;15175;48.154;11.534;2023-04-24T13:18:57;14.80;99.90
15967;DHT22;15175;48.154;11.534;2023-04-24T13:21:24;14.80;99.90
15967;DHT22;15175;48.154;11.534;2023-04-24T13:23:52;14.70;99.90
15967;DHT22;15175;48.154;11.534;2023-04-24T13:26:19;14.80;99.90
15967;DHT22;15175;48.154;11.534;2023-04-24T13:28:46;14.80;99.90
15967;DHT22;15175;48.154;11.534;2023-04-24T13:31:14;14.80;99.90
15967;DHT22;15175;48.154;11.534;2023-04-24T13:33:42;14.80;99.90
15967;DHT22;15175;48.154;11.534;2023-04-24T13:36:09;14.90;99.90
15967;DHT22;15175;48.154;11.534;2023-04-24T13:38:36;15.00;99.90
15967;DHT22;15175;48.154;11.534;2023-04-24T13:41:03;15.00;99.90
15967;DHT22;15175;48.154;11.534;2023-04-24T13:43:30;14.90;99.90
15967;DHT22;15175;48.154;11.534;2023-04-24T13:45:57;14.90;99.90
15967;DHT22;15175;48.154;11.534;2023-04-24T13:48:29;14.90;99.90
15967;DHT22;15175;48.154;11.534;2023-04-24T13:50:56;14.80;99.90
15967;DHT22;15175;48.154;11.534;2023-04-24T13:53:23;14.80;99.90
15967;DHT22;15175;48.154;11.534;2023-04-24T13:55:50;14.80;99.90
15967;DHT22;15175;48.154;11.534;2023-04-24T13:58:17;14.70;99.90
15967;DHT22;15175;48.154;11.534;2023-04-24T14:00:44;14.70;99.90
15967;DHT22;15175;48.154;11.534;2023-04-24T14:03:11;14.70;99.90
15967;DHT22;15175;48.154;11.534;2023-04-24T14:05:40;14.70;99.90
15967;DHT22;15175;48.154;11.534;2023-04-24T14:08:07;14.60;99.90
15967;DHT22;15175;48.154;11.534;2023-04-24T14:10:35;14.60;99.90
15967;DHT22;15175;48.154;11.534;2023-04-24T14:13:02;14.60;99.90
15967;DHT22;15175;48.154;11.534;2023-04-24T14:15:29;14.60;99.90
15967;DHT22;15175;48.154;11.534;2023-04-24T14:17:56;14.70;99.90
15967;DHT22;15175;48.154;11.534;2023-04-24T14:20:24;14.70;99.90
15967;DHT22;15175;48.154;11.534;2023-04-24T14:22:52;14.70;99.90
15967;DHT22;15175;48.154;11.534;2023-04-24T14:25:20;14.60;99.90
15967;DHT22;15175;48.154;11.534;2023-04-24T14:27:48;14.60;99.90
15967;DHT22;15175;48.154;11.534;2023-04-24T14:30:15;14.60;99.90
15967;DHT22;15175;48.154;11.534;2023-04-24T14:32:42;14.50;99.90
15967;DHT22;15175;48.154;11.534;2023-04-24T14:35:09;14.50;99.90
15967;DHT22;15175;48.154;11.534;2023-04-24T14:37:36;14.40;99.90
15967;DHT22;15175;48.154;11.534;2023-04-24T14:40:09;14.40;99.90
15967;DHT22;15175;48.154;11.534;2023-04-24T14:42:36;14.40;99.90
15967;DHT22;15175;48.154;11.534;2023-04-24T14:45:04;14.40;99.90
15967;DHT22;15175;48.154;11.534;2023-04-24T14:47:32;14.40;99.90
15967;DHT22;15175;48.154;11.534;2023-04-24T14:49:59;14.30;99.90
15967;DHT22;15175;48.154;11.534;2023-04-24T14:52:26;14.30;99.90
15967;DHT22;15175;48.154;11.534;2023-04-24T14:54:53;14.20;99.90
15967;DHT22;15175;48.154;11.534;2023-04-24T14:57:22;14.10;99.90
15967;DHT22;15175;48.154;11.534;2023-04-24T14:59:49;14.10;99.90
15967;DHT22;15175;48.154;11.534;2023-04-24T15:02:16;14.10;99.90
15967;DHT22;15175;48.154;11.534;2023-04-24T15:04:43;14.10;99.90
15967;DHT22;15175;48.154;11.534;2023-04-24T15:07:11;14.20;99.90
15967;DHT22;15175;48.154;11.534;2023-04-24T15:09:38;14.20;99.90
15967;DHT22;15175;48.154;11.534;2023-04-24T15:12:05;14.20;99.90
15967;DHT22;15175;48.154;11.534;2023-04-24T15:14:34;14.10;99.90
15967;DHT22;15175;48.154;11.534;2023-04-24T15:17:01;14.10;99.90
15967;DHT22;15175;48.154;11.534;2023-04-24T15:19:28;14.10;99.90
15967;DHT22;15175;48.154;11.534;2023-04-24T15:21:55;14.10;99.90
15967;DHT22;15175;48.154;11.534;2023-04-24T15:24:22;13.90;99.90
15967;DHT22;15175;48.154;11.534;2023-04-24T15:26:50;14.10;99.90